General Aviation Weather

Text Reports

Enter one or more of the following location identifiers separated by a space:

Zip Code, Four-Character ICAO or Three-Character IATA airport codes.

METAR - Aviation Routine Weather Report
KADM - Ardmore, Oklahoma
Updated at 1:55 PM GMT on September 03, 2015 (8:55 AM CDT):
METAR KADM 031355Z 00000KT 10SM SKC 25/21 A2999 RMK RWY 17 / ATIS Y
TAF - Terminal Area Forecast
KADM - Ardmore, Oklahoma
Updated at 1:55 PM GMT on September 03, 2015 (8:55 AM CDT):
No TAF is currently available for this location.
Decoded:
No decoded TAF is available.
PIREP - Pilot Weather Report
KADM - Ardmore, Oklahoma
Updated at 1:55 PM GMT on September 03, 2015 (8:55 AM CDT):
No PIREP is currently available for this location.
AIRMET - Airmens Meteorological Information
KADM - Ardmore, Oklahoma
Updated at 1:55 PM GMT on September 03, 2015 (8:55 AM CDT):
No AIRMET is currently available for this location.
SIGMET - Significant Meteorological Information
KADM - Ardmore, Oklahoma
Updated at 1:55 PM GMT on September 03, 2015 (8:55 AM CDT):
No SIGMET is currently available for this location.
NOTAM - Notice to Airmen
KADM - Ardmore, Oklahoma
Updated at 1:55 PM GMT on September 03, 2015 (8:55 AM CDT):
No NOTAM is currently available for this location.
Forecast Area
KADM - Ardmore, Oklahoma
Updated at 1:55 PM GMT on September 03, 2015 (8:55 AM CDT):
No NOTAM is currently available for this location.
Aviation Weather Maps